CCGS Sir Wilfrid Laurier — CGJK — position and weather

sailwx.info

Track history (hours):
 
Tides and Currents Weather Stations Pressure Air Temp Water Temp Dewpoint Dewpoint Depression Visibility Wind Speed Wind Dir Waves Ship Positions

Oceanographic research ship CCGS Sir Wilfrid Laurier (Canada)

Detailed information on ship capabilities available from ARCUS's ALIAS (Arctic Logistics Information and Support) project.

Last reported at 2014-Jul-05 12:25 UTC. Time now 2014-Aug-20 12:43 UTC.
Position N 48°57' W 126°27'.
Warning: this ship's position is 46 days out of date.

Length 83 m; beam 16.2 m; draft 6 m.

Type: SAR. MMSI: 316052000.

Date/timePositionNaut miles runAvg speedWind from/ knotsBaromVisibWave heightAir tempDewpointWater temp
2014-Jul-05 12:25N 48°57' W 126°27'1010.6
2014-Jul-05 11:27N 48°53' W 126°14'1011.0
2014-Jul-05 10:33N 48°48' W 126°00'1111.1
2014-Jul-05 09:33N 48°43' W 125°45'1110.9
2014-Jul-05 08:33N 48°38' W 125°31'1110.9
2014-Jul-05 07:32N 48°33' W 125°16'1111.6
2014-Jul-05 06:33N 48°33' W 124°59'1110.9
2014-Jul-05 05:33N 48°33' W 124°42'9 9.4
2014-Jul-05 04:33N 48°30' W 124°29'10 9.7
2014-Jul-05 03:33N 48°26' W 124°15'10 9.6
2014-Jul-05 02:33N 48°23' W 124°02'9 9.4
2014-Jul-05 01:33N 48°20' W 123°48'10 9.7
2014-Jul-05 00:32N 48°17' W 123°34'9 8.8
2014-Jul-04 23:33N 48°23' W 123°25'2 2.0
2014-Jul-04 22:32N 48°25' W 123°23'0 0.0
2014-Jul-04 21:32N 48°25' W 123°23'0 0.0
2014-Jul-04 20:32N 48°25' W 123°23'0 0.0
2014-Jul-04 19:32N 48°25' W 123°23'0 0.0
2014-Jul-04 18:29N 48°25' W 123°23'0 0.0
2014-Jul-04 17:32N 48°25' W 123°23'0 0.0
2014-Jul-04 16:29N 48°25' W 123°23'0 0.0
2014-Jul-04 15:32N 48°25' W 123°23'0 0.0
2014-Jul-04 14:32N 48°25' W 123°23'0 0.0
2014-Jul-04 13:32N 48°25' W 123°23'0 0.0
2014-Jul-04 12:29N 48°25' W 123°23'0 0.0
2014-Jul-04 11:32N 48°25' W 123°23'0 0.0
2014-Jul-04 10:29N 48°25' W 123°23'0 0.0
2014-Jul-04 09:26N 48°25' W 123°23'0 0.0
2014-Jul-04 08:26N 48°25' W 123°23'0 0.0
2014-Jul-04 07:29N 48°25' W 123°23'0 0.0
2014-Jul-04 06:32N 48°25' W 123°23'0 0.0
2014-Jul-04 05:32N 48°25' W 123°23'0 0.0
2014-Jul-04 04:32N 48°25' W 123°23'0 0.0
2014-Jul-04 03:29N 48°25' W 123°23'0 0.0
2014-Jul-04 02:32N 48°25' W 123°23'0 0.0
2014-Jul-04 01:32N 48°25' W 123°23'0 0.0
2014-Jul-04 00:32N 48°25' W 123°23'0 0.0
2014-Jul-03 23:32N 48°25' W 123°23'0 0.0
2014-Jul-03 22:32N 48°25' W 123°23'0 0.0
2014-Jul-03 21:32N 48°25' W 123°23'0 0.0
2014-Jul-03 20:32N 48°25' W 123°23'0 0.0
2014-Jul-03 19:32N 48°25' W 123°23'0 0.0
2014-Jul-03 18:32N 48°25' W 123°23'0 0.0
2014-Jul-03 17:32N 48°25' W 123°23'0 0.0
2014-Jul-03 16:32N 48°25' W 123°23'0 0.0
2014-Jul-03 15:32N 48°25' W 123°23'0 0.0
2014-Jul-03 14:32N 48°25' W 123°23'0 0.0
2014-Jul-03 13:32N 48°25' W 123°23'0 0.0
2014-Jul-03 12:29N 48°25' W 123°23'0 0.0
2014-Jul-03 11:32N 48°25' W 123°23'0 0.0
2014-Jul-03 10:32N 48°25' W 123°23'0 0.0
2014-Jul-03 09:32N 48°25' W 123°23'0 0.0
2014-Jul-03 08:32N 48°25' W 123°23'0 0.0
2014-Jul-03 07:32N 48°25' W 123°23'0 0.0
2014-Jul-03 06:32N 48°25' W 123°23'0 0.0
2014-Jul-03 05:29N 48°25' W 123°23'0 0.0
2014-Jul-03 04:32N 48°25' W 123°23'0 0.0
2014-Jul-03 03:32N 48°25' W 123°23'0 0.0
2014-Jul-03 02:32N 48°25' W 123°23'0 0.0
2014-Jul-03 01:26N 48°25' W 123°23'0 0.0
2014-Jul-03 00:32N 48°25' W 123°23'0 0.0
2014-Jul-02 23:32N 48°25' W 123°23'0 0.0
2014-Jul-02 22:32N 48°25' W 123°23'0 0.0
2014-Jul-02 21:29N 48°25' W 123°23'0 0.0
2014-Jul-02 20:32N 48°25' W 123°23'0 0.0
2014-Jul-02 19:32N 48°25' W 123°23'0 0.0
2014-Jul-02 18:29N 48°25' W 123°23'0 0.0
2014-Jul-02 17:32N 48°25' W 123°23'0 0.0
2014-Jul-02 16:32N 48°25' W 123°23'0 0.0
2014-Jul-02 15:32N 48°25' W 123°23'0 0.0
2014-Jul-02 14:28N 48°25' W 123°23'0 0.0
2014-Jul-02 13:28N 48°25' W 123°23'0 0.0
2014-Jul-02 12:28N 48°25' W 123°23'0 0.0
2014-Jul-02 10:31N 48°25' W 123°23'0 0.0
2014-Jul-02 09:28N 48°25' W 123°23'0 0.0
2014-Jul-02 08:31N 48°25' W 123°23'0 0.0
2014-Jul-02 07:31N 48°25' W 123°23'0 0.0
2014-Jul-02 06:31N 48°25' W 123°23'0 0.0
2014-Jul-02 05:31N 48°25' W 123°23'0 0.0
2014-Jul-02 04:31N 48°25' W 123°23'0 0.0
2014-Jul-02 03:31N 48°25' W 123°23'0 0.0
2014-Jul-02 02:31N 48°25' W 123°23'0 0.0
2014-Jul-02 01:31N 48°25' W 123°23'0 0.0
2014-Jul-02 00:31N 48°25' W 123°23'0 0.0
2014-Jul-01 23:28N 48°25' W 123°23'0 0.0
2014-Jul-01 22:31N 48°25' W 123°23'0 0.0
2014-Jul-01 21:28N 48°25' W 123°23'0 0.0
2014-Jul-01 20:31N 48°25' W 123°23'0 0.0
2014-Jul-01 19:31N 48°25' W 123°23'0 0.0
2014-Jul-01 18:31N 48°25' W 123°23'0 0.0
2014-Jul-01 17:31N 48°25' W 123°23'0 0.0
2014-Jul-01 16:31N 48°25' W 123°23'0 0.0
2014-Jul-01 15:31N 48°25' W 123°23'0 0.0
2014-Jul-01 14:25N 48°25' W 123°23'0 0.0
2014-Jul-01 13:31N 48°25' W 123°23'0 0.0
2014-Jul-01 12:28N 48°25' W 123°23'0 0.0
2014-Jul-01 11:28N 48°25' W 123°23'0 0.0
2014-Jul-01 10:28N 48°25' W 123°23'0 0.0
2014-Jul-01 09:31N 48°25' W 123°23'0 0.0
2014-Jul-01 08:31N 48°25' W 123°23'0 0.0
2014-Jul-01 07:28N 48°25' W 123°23'0 0.0
2014-Jul-01 06:31N 48°25' W 123°23'0 0.0
2014-Jul-01 05:28N 48°25' W 123°23'0 0.0
2014-Jul-01 04:31N 48°25' W 123°23'0 0.0
2014-Jul-01 03:31N 48°25' W 123°23'0 0.0
2014-Jul-01 02:31N 48°25' W 123°23'0 0.0
2014-Jul-01 01:31N 48°25' W 123°23'0 0.0
2014-Jul-01 00:31N 48°25' W 123°23'0 0.0
2014-Jun-30 23:31N 48°25' W 123°23'0 0.0
2014-Jun-30 22:31N 48°25' W 123°23'0 0.0
2014-Jun-30 21:31N 48°25' W 123°23'0 0.0
2014-Jun-30 20:31N 48°25' W 123°23'0 0.0
2014-Jun-30 19:31N 48°25' W 123°23'0 0.0
2014-Jun-30 18:31N 48°25' W 123°23'0 0.0
2014-Jun-30 17:31N 48°25' W 123°23'0 0.0
2014-Jun-30 16:31N 48°25' W 123°23'0 0.0
2014-Jun-30 15:31N 48°25' W 123°23'0 0.0
2014-Jun-30 14:31N 48°25' W 123°23'0 0.0
2014-Jun-30 13:31N 48°25' W 123°23'0 0.0
2014-Jun-30 12:31N 48°25' W 123°23'0 0.0
2014-Jun-30 11:31N 48°25' W 123°23'0 0.0
2014-Jun-30 10:31N 48°25' W 123°23'0 0.0
2014-Jun-30 09:31N 48°25' W 123°23'0 0.0
2014-Jun-30 08:31N 48°25' W 123°23'0 0.0
2014-Jun-30 07:31N 48°25' W 123°23'0 0.0
2014-Jun-30 06:31N 48°25' W 123°23'0 0.0
2014-Jun-30 05:31N 48°25' W 123°23'0 0.0
2014-Jun-30 04:31N 48°25' W 123°23'0 0.0
2014-Jun-30 03:31N 48°25' W 123°23'0 0.0
2014-Jun-30 02:31N 48°25' W 123°23'0 0.0
2014-Jun-30 01:31N 48°25' W 123°23'0 0.0
2014-Jun-30 00:28N 48°25' W 123°23'0 0.0
2014-Jun-29 23:31N 48°25' W 123°23'0 0.0
2014-Jun-29 22:31N 48°25' W 123°23'0 0.0
2014-Jun-29 21:31N 48°25' W 123°23'0 0.0
2014-Jun-29 20:31N 48°25' W 123°23'0 0.0
2014-Jun-29 19:28N 48°25' W 123°23'0 0.0
2014-Jun-29 18:31N 48°25' W 123°23'0 0.0
2014-Jun-29 17:31N 48°25' W 123°23'0 0.0
2014-Jun-29 16:31N 48°25' W 123°23'0 0.0
2014-Jun-29 15:25N 48°25' W 123°23'0 0.0
2014-Jun-29 14:31N 48°25' W 123°23'0 0.0
2014-Jun-29 13:31N 48°25' W 123°23'0 0.0
2014-Jun-29 12:31N 48°25' W 123°23'0 0.0
2014-Jun-29 11:31N 48°25' W 123°23'0 0.0
2014-Jun-29 10:31N 48°25' W 123°23'0 0.0
2014-Jun-29 09:31N 48°25' W 123°23'0 0.0
2014-Jun-29 08:31N 48°25' W 123°23'0 0.0
2014-Jun-29 07:31N 48°25' W 123°23'0 0.0
2014-Jun-29 06:31N 48°25' W 123°23'0 0.0
2014-Jun-29 05:31N 48°25' W 123°23'0 0.0
2014-Jun-29 04:31N 48°25' W 123°23'0 0.0
2014-Jun-29 03:31N 48°25' W 123°23'0 0.0
2014-Jun-29 02:31N 48°25' W 123°23'0 0.0
2014-Jun-29 01:28N 48°25' W 123°23'0 0.0
2014-Jun-29 00:25N 48°25' W 123°23'0 0.0
2014-Jun-28 23:31N 48°25' W 123°23'0 0.0
2014-Jun-28 22:31N 48°25' W 123°23'0 0.0
2014-Jun-28 21:31N 48°25' W 123°23'0 0.0
2014-Jun-28 20:31N 48°25' W 123°23'0 0.0
2014-Jun-28 19:31N 48°25' W 123°23'0 0.0
2014-Jun-28 18:31N 48°25' W 123°23'0 0.0
2014-Jun-28 17:31N 48°25' W 123°23'0 0.0
2014-Jun-28 16:31N 48°25' W 123°23'0 0.0
2014-Jun-28 15:31N 48°25' W 123°23'0 0.0
2014-Jun-28 14:31N 48°25' W 123°23'0 0.0
2014-Jun-28 13:31N 48°25' W 123°23'0 0.0
2014-Jun-28 12:31N 48°25' W 123°23'0 0.0
2014-Jun-28 11:31N 48°25' W 123°23'0 0.0
2014-Jun-28 10:31N 48°25' W 123°23'0 0.0
2014-Jun-28 09:31N 48°25' W 123°23'0 0.0
2014-Jun-28 08:25N 48°25' W 123°23'0 0.0
2014-Jun-28 07:31N 48°25' W 123°23'0 0.0
2014-Jun-28 06:31N 48°25' W 123°23'0 0.0
2014-Jun-28 05:31N 48°25' W 123°23'0 0.0
2014-Jun-28 04:31N 48°25' W 123°23'0 0.0
2014-Jun-28 03:31N 48°25' W 123°23'0 0.0
2014-Jun-28 02:31N 48°25' W 123°23'0 0.0
2014-Jun-28 01:31N 48°25' W 123°23'0 0.0
2014-Jun-28 00:31N 48°25' W 123°23'0 0.0
2014-Jun-27 23:31N 48°25' W 123°23'0 0.0
2014-Jun-27 22:31N 48°25' W 123°23'0 0.0
2014-Jun-27 21:28N 48°25' W 123°23'0 0.0
2014-Jun-27 20:31N 48°25' W 123°23'0 0.0
2014-Jun-27 19:28N 48°25' W 123°23'0 0.0
2014-Jun-27 18:19N 48°25' W 123°23'0 0.0
2014-Jun-27 17:25N 48°25' W 123°23'0 0.0
2014-Jun-27 16:31N 48°25' W 123°23'0 0.0
2014-Jun-27 15:31N 48°25' W 123°23'0 0.0
2014-Jun-27 14:28N 48°25' W 123°23'0 0.0
2014-Jun-27 13:31N 48°25' W 123°23'0 0.0
2014-Jun-27 12:31N 48°25' W 123°23'0 0.0
2014-Jun-27 11:28N 48°25' W 123°23'0 0.0
2014-Jun-27 10:31N 48°25' W 123°23'0 0.0
2014-Jun-27 09:28N 48°25' W 123°23'0 0.0
2014-Jun-27 08:28N 48°25' W 123°23'0 0.0
2014-Jun-27 07:31N 48°25' W 123°23'0 0.0
2014-Jun-27 06:28N 48°25' W 123°23'0 0.0
2014-Jun-27 05:31N 48°25' W 123°23'0 0.0
2014-Jun-27 04:31N 48°25' W 123°23'0 0.0
2014-Jun-27 03:28N 48°25' W 123°23'0 0.0
2014-Jun-27 02:28N 48°25' W 123°23'0 0.0
2014-Jun-27 01:31N 48°25' W 123°23'0 0.0
2014-Jun-27 00:31N 48°25' W 123°23'0 0.0
2014-Jun-26 23:31N 48°25' W 123°23'0 0.0
2014-Jun-26 22:31N 48°25' W 123°23'0 0.0
2014-Jun-26 21:31N 48°25' W 123°23'0 0.0
2014-Jun-26 20:31N 48°25' W 123°23'0 0.0
2014-Jun-26 19:31N 48°25' W 123°23'0 0.0
2014-Jun-26 18:31N 48°25' W 123°23'0 0.0
2014-Jun-26 17:31N 48°25' W 123°23'0 0.0
2014-Jun-26 16:31N 48°25' W 123°23'0 0.0
2014-Jun-26 15:31N 48°25' W 123°23'0 0.0
2014-Jun-26 14:31N 48°25' W 123°23'0 0.0
2014-Jun-26 13:31N 48°25' W 123°23'0 0.0
2014-Jun-26 12:25N 48°25' W 123°23'0 0.0
2014-Jun-26 11:31N 48°25' W 123°23'0 0.0
2014-Jun-26 10:25N 48°25' W 123°23'0 0.0
2014-Jun-26 09:31N 48°25' W 123°23'0 0.0
2014-Jun-26 08:31N 48°25' W 123°23'0 0.0
2014-Jun-26 07:28N 48°25' W 123°23'0 0.0
2014-Jun-26 06:28N 48°25' W 123°23'0 0.0
2014-Jun-26 05:28N 48°25' W 123°23'0 0.0
2014-Jun-26 04:31N 48°25' W 123°23'0 0.0
2014-Jun-26 03:31N 48°25' W 123°23'0 0.0
2014-Jun-26 02:28N 48°25' W 123°23'0 0.0
2014-Jun-26 01:31N 48°25' W 123°23'0 0.0
2014-Jun-26 00:31N 48°25' W 123°23'0 0.0
2014-Jun-25 23:25N 48°25' W 123°23'0 0.0
2014-Jun-25 22:31N 48°25' W 123°23'0 0.0
2014-Jun-25 21:31N 48°25' W 123°23'0 0.0
2014-Jun-25 20:31N 48°25' W 123°23'0 0.0
2014-Jun-25 19:31N 48°25' W 123°23'0 0.0
2014-Jun-25 18:31N 48°25' W 123°23'0 0.0
2014-Jun-25 17:31N 48°25' W 123°23'0 0.0
2014-Jun-25 16:31N 48°25' W 123°23'0 0.0
2014-Jun-25 15:31N 48°25' W 123°23'0 0.0
2014-Jun-25 14:25N 48°25' W 123°23'0 0.0
2014-Jun-25 13:31N 48°25' W 123°23'0 0.0
2014-Jun-25 12:31N 48°25' W 123°23'  
Track history (hours):
 
Tides and Currents Weather Stations Pressure Air Temp Water Temp Dewpoint Dewpoint Depression Visibility Wind Speed Wind Dir Waves Ship Positions

Oceanographic research ship CCGS Sir Wilfrid Laurier (Canada)

Detailed information on ship capabilities available from ARCUS's ALIAS (Arctic Logistics Information and Support) project.

Last reported at 2014-Jul-05 12:25 UTC. Time now 2014-Aug-20 12:43 UTC.
Position N 48°57' W 126°27'.
Warning: this ship's position is 46 days out of date.

Length 83 m; beam 16.2 m; draft 6 m.

Type: SAR. MMSI: 316052000.

Date/timePositionNaut miles runAvg speedWind from/ knotsBaromVisibWave heightAir tempDewpointWater temp
2014-Jul-05 12:25N 48°57' W 126°27'1010.6
2014-Jul-05 11:27N 48°53' W 126°14'1011.0
2014-Jul-05 10:33N 48°48' W 126°00'1111.1
2014-Jul-05 09:33N 48°43' W 125°45'1110.9
2014-Jul-05 08:33N 48°38' W 125°31'1110.9
2014-Jul-05 07:32N 48°33' W 125°16'1111.6
2014-Jul-05 06:33N 48°33' W 124°59'1110.9
2014-Jul-05 05:33N 48°33' W 124°42'9 9.4
2014-Jul-05 04:33N 48°30' W 124°29'10 9.7
2014-Jul-05 03:33N 48°26' W 124°15'10 9.6
2014-Jul-05 02:33N 48°23' W 124°02'9 9.4
2014-Jul-05 01:33N 48°20' W 123°48'10 9.7
2014-Jul-05 00:32N 48°17' W 123°34'9 8.8
2014-Jul-04 23:33N 48°23' W 123°25'2 2.0
2014-Jul-04 22:32N 48°25' W 123°23'0 0.0
2014-Jul-04 21:32N 48°25' W 123°23'0 0.0
2014-Jul-04 20:32N 48°25' W 123°23'0 0.0
2014-Jul-04 19:32N 48°25' W 123°23'0 0.0
2014-Jul-04 18:29N 48°25' W 123°23'0 0.0
2014-Jul-04 17:32N 48°25' W 123°23'0 0.0
2014-Jul-04 16:29N 48°25' W 123°23'0 0.0
2014-Jul-04 15:32N 48°25' W 123°23'0 0.0
2014-Jul-04 14:32N 48°25' W 123°23'0 0.0
2014-Jul-04 13:32N 48°25' W 123°23'0 0.0
2014-Jul-04 12:29N 48°25' W 123°23'0 0.0
2014-Jul-04 11:32N 48°25' W 123°23'0 0.0
2014-Jul-04 10:29N 48°25' W 123°23'0 0.0
2014-Jul-04 09:26N 48°25' W 123°23'0 0.0
2014-Jul-04 08:26N 48°25' W 123°23'0 0.0
2014-Jul-04 07:29N 48°25' W 123°23'0 0.0
2014-Jul-04 06:32N 48°25' W 123°23'0 0.0
2014-Jul-04 05:32N 48°25' W 123°23'0 0.0
2014-Jul-04 04:32N 48°25' W 123°23'0 0.0
2014-Jul-04 03:29N 48°25' W 123°23'0 0.0
2014-Jul-04 02:32N 48°25' W 123°23'0 0.0
2014-Jul-04 01:32N 48°25' W 123°23'0 0.0
2014-Jul-04 00:32N 48°25' W 123°23'0 0.0
2014-Jul-03 23:32N 48°25' W 123°23'0 0.0
2014-Jul-03 22:32N 48°25' W 123°23'0 0.0
2014-Jul-03 21:32N 48°25' W 123°23'0 0.0
2014-Jul-03 20:32N 48°25' W 123°23'0 0.0
2014-Jul-03 19:32N 48°25' W 123°23'0 0.0
2014-Jul-03 18:32N 48°25' W 123°23'0 0.0
2014-Jul-03 17:32N 48°25' W 123°23'0 0.0
2014-Jul-03 16:32N 48°25' W 123°23'0 0.0
2014-Jul-03 15:32N 48°25' W 123°23'0 0.0
2014-Jul-03 14:32N 48°25' W 123°23'0 0.0
2014-Jul-03 13:32N 48°25' W 123°23'0 0.0
2014-Jul-03 12:29N 48°25' W 123°23'0 0.0
2014-Jul-03 11:32N 48°25' W 123°23'0 0.0
2014-Jul-03 10:32N 48°25' W 123°23'0 0.0
2014-Jul-03 09:32N 48°25' W 123°23'0 0.0
2014-Jul-03 08:32N 48°25' W 123°23'0 0.0
2014-Jul-03 07:32N 48°25' W 123°23'0 0.0
2014-Jul-03 06:32N 48°25' W 123°23'0 0.0
2014-Jul-03 05:29N 48°25' W 123°23'0 0.0
2014-Jul-03 04:32N 48°25' W 123°23'0 0.0
2014-Jul-03 03:32N 48°25' W 123°23'0 0.0
2014-Jul-03 02:32N 48°25' W 123°23'0 0.0
2014-Jul-03 01:26N 48°25' W 123°23'0 0.0
2014-Jul-03 00:32N 48°25' W 123°23'0 0.0
2014-Jul-02 23:32N 48°25' W 123°23'0 0.0
2014-Jul-02 22:32N 48°25' W 123°23'0 0.0
2014-Jul-02 21:29N 48°25' W 123°23'0 0.0
2014-Jul-02 20:32N 48°25' W 123°23'0 0.0
2014-Jul-02 19:32N 48°25' W 123°23'0 0.0
2014-Jul-02 18:29N 48°25' W 123°23'0 0.0
2014-Jul-02 17:32N 48°25' W 123°23'0 0.0
2014-Jul-02 16:32N 48°25' W 123°23'0 0.0
2014-Jul-02 15:32N 48°25' W 123°23'0 0.0
2014-Jul-02 14:28N 48°25' W 123°23'0 0.0
2014-Jul-02 13:28N 48°25' W 123°23'0 0.0
2014-Jul-02 12:28N 48°25' W 123°23'0 0.0
2014-Jul-02 10:31N 48°25' W 123°23'0 0.0
2014-Jul-02 09:28N 48°25' W 123°23'0 0.0
2014-Jul-02 08:31N 48°25' W 123°23'0 0.0
2014-Jul-02 07:31N 48°25' W 123°23'0 0.0
2014-Jul-02 06:31N 48°25' W 123°23'0 0.0
2014-Jul-02 05:31N 48°25' W 123°23'0 0.0
2014-Jul-02 04:31N 48°25' W 123°23'0 0.0
2014-Jul-02 03:31N 48°25' W 123°23'0 0.0
2014-Jul-02 02:31N 48°25' W 123°23'0 0.0
2014-Jul-02 01:31N 48°25' W 123°23'0 0.0
2014-Jul-02 00:31N 48°25' W 123°23'0 0.0
2014-Jul-01 23:28N 48°25' W 123°23'0 0.0
2014-Jul-01 22:31N 48°25' W 123°23'0 0.0
2014-Jul-01 21:28N 48°25' W 123°23'0 0.0
2014-Jul-01 20:31N 48°25' W 123°23'0 0.0
2014-Jul-01 19:31N 48°25' W 123°23'0 0.0
2014-Jul-01 18:31N 48°25' W 123°23'0 0.0
2014-Jul-01 17:31N 48°25' W 123°23'0 0.0
2014-Jul-01 16:31N 48°25' W 123°23'0 0.0
2014-Jul-01 15:31N 48°25' W 123°23'0 0.0
2014-Jul-01 14:25N 48°25' W 123°23'0 0.0
2014-Jul-01 13:31N 48°25' W 123°23'0 0.0
2014-Jul-01 12:28N 48°25' W 123°23'0 0.0
2014-Jul-01 11:28N 48°25' W 123°23'0 0.0
2014-Jul-01 10:28N 48°25' W 123°23'0 0.0
2014-Jul-01 09:31N 48°25' W 123°23'0 0.0
2014-Jul-01 08:31N 48°25' W 123°23'0 0.0
2014-Jul-01 07:28N 48°25' W 123°23'0 0.0
2014-Jul-01 06:31N 48°25' W 123°23'0 0.0
2014-Jul-01 05:28N 48°25' W 123°23'0 0.0
2014-Jul-01 04:31N 48°25' W 123°23'0 0.0
2014-Jul-01 03:31N 48°25' W 123°23'0 0.0
2014-Jul-01 02:31N 48°25' W 123°23'0 0.0
2014-Jul-01 01:31N 48°25' W 123°23'0 0.0
2014-Jul-01 00:31N 48°25' W 123°23'0 0.0
2014-Jun-30 23:31N 48°25' W 123°23'0 0.0
2014-Jun-30 22:31N 48°25' W 123°23'0 0.0
2014-Jun-30 21:31N 48°25' W 123°23'0 0.0
2014-Jun-30 20:31N 48°25' W 123°23'0 0.0
2014-Jun-30 19:31N 48°25' W 123°23'0 0.0
2014-Jun-30 18:31N 48°25' W 123°23'0 0.0
2014-Jun-30 17:31N 48°25' W 123°23'0 0.0
2014-Jun-30 16:31N 48°25' W 123°23'0 0.0
2014-Jun-30 15:31N 48°25' W 123°23'0 0.0
2014-Jun-30 14:31N 48°25' W 123°23'0 0.0
2014-Jun-30 13:31N 48°25' W 123°23'0 0.0
2014-Jun-30 12:31N 48°25' W 123°23'0 0.0
2014-Jun-30 11:31N 48°25' W 123°23'0 0.0
2014-Jun-30 10:31N 48°25' W 123°23'0 0.0
2014-Jun-30 09:31N 48°25' W 123°23'0 0.0
2014-Jun-30 08:31N 48°25' W 123°23'0 0.0
2014-Jun-30 07:31N 48°25' W 123°23'0 0.0
2014-Jun-30 06:31N 48°25' W 123°23'0 0.0
2014-Jun-30 05:31N 48°25' W 123°23'0 0.0
2014-Jun-30 04:31N 48°25' W 123°23'0 0.0
2014-Jun-30 03:31N 48°25' W 123°23'0 0.0
2014-Jun-30 02:31N 48°25' W 123°23'0 0.0
2014-Jun-30 01:31N 48°25' W 123°23'0 0.0
2014-Jun-30 00:28N 48°25' W 123°23'0 0.0
2014-Jun-29 23:31N 48°25' W 123°23'0 0.0
2014-Jun-29 22:31N 48°25' W 123°23'0 0.0
2014-Jun-29 21:31N 48°25' W 123°23'0 0.0
2014-Jun-29 20:31N 48°25' W 123°23'0 0.0
2014-Jun-29 19:28N 48°25' W 123°23'0 0.0
2014-Jun-29 18:31N 48°25' W 123°23'0 0.0
2014-Jun-29 17:31N 48°25' W 123°23'0 0.0
2014-Jun-29 16:31N 48°25' W 123°23'0 0.0
2014-Jun-29 15:25N 48°25' W 123°23'0 0.0
2014-Jun-29 14:31N 48°25' W 123°23'0 0.0
2014-Jun-29 13:31N 48°25' W 123°23'0 0.0
2014-Jun-29 12:31N 48°25' W 123°23'0 0.0
2014-Jun-29 11:31N 48°25' W 123°23'0 0.0
2014-Jun-29 10:31N 48°25' W 123°23'0 0.0
2014-Jun-29 09:31N 48°25' W 123°23'0 0.0
2014-Jun-29 08:31N 48°25' W 123°23'0 0.0
2014-Jun-29 07:31N 48°25' W 123°23'0 0.0
2014-Jun-29 06:31N 48°25' W 123°23'0 0.0
2014-Jun-29 05:31N 48°25' W 123°23'0 0.0
2014-Jun-29 04:31N 48°25' W 123°23'0 0.0
2014-Jun-29 03:31N 48°25' W 123°23'0 0.0
2014-Jun-29 02:31N 48°25' W 123°23'0 0.0
2014-Jun-29 01:28N 48°25' W 123°23'0 0.0
2014-Jun-29 00:25N 48°25' W 123°23'0 0.0
2014-Jun-28 23:31N 48°25' W 123°23'0 0.0
2014-Jun-28 22:31N 48°25' W 123°23'0 0.0
2014-Jun-28 21:31N 48°25' W 123°23'0 0.0
2014-Jun-28 20:31N 48°25' W 123°23'0 0.0
2014-Jun-28 19:31N 48°25' W 123°23'0 0.0
2014-Jun-28 18:31N 48°25' W 123°23'0 0.0
2014-Jun-28 17:31N 48°25' W 123°23'0 0.0
2014-Jun-28 16:31N 48°25' W 123°23'0 0.0
2014-Jun-28 15:31N 48°25' W 123°23'0 0.0
2014-Jun-28 14:31N 48°25' W 123°23'0 0.0
2014-Jun-28 13:31N 48°25' W 123°23'0 0.0
2014-Jun-28 12:31N 48°25' W 123°23'0 0.0
2014-Jun-28 11:31N 48°25' W 123°23'0 0.0
2014-Jun-28 10:31N 48°25' W 123°23'0 0.0
2014-Jun-28 09:31N 48°25' W 123°23'0 0.0
2014-Jun-28 08:25N 48°25' W 123°23'0 0.0
2014-Jun-28 07:31N 48°25' W 123°23'0 0.0
2014-Jun-28 06:31N 48°25' W 123°23'0 0.0
2014-Jun-28 05:31N 48°25' W 123°23'0 0.0
2014-Jun-28 04:31N 48°25' W 123°23'0 0.0
2014-Jun-28 03:31N 48°25' W 123°23'0 0.0
2014-Jun-28 02:31N 48°25' W 123°23'0 0.0
2014-Jun-28 01:31N 48°25' W 123°23'0 0.0
2014-Jun-28 00:31N 48°25' W 123°23'0 0.0
2014-Jun-27 23:31N 48°25' W 123°23'0 0.0
2014-Jun-27 22:31N 48°25' W 123°23'0 0.0
2014-Jun-27 21:28N 48°25' W 123°23'0 0.0
2014-Jun-27 20:31N 48°25' W 123°23'0 0.0
2014-Jun-27 19:28N 48°25' W 123°23'0 0.0
2014-Jun-27 18:19N 48°25' W 123°23'0 0.0
2014-Jun-27 17:25N 48°25' W 123°23'0 0.0
2014-Jun-27 16:31N 48°25' W 123°23'0 0.0
2014-Jun-27 15:31N 48°25' W 123°23'0 0.0
2014-Jun-27 14:28N 48°25' W 123°23'0 0.0
2014-Jun-27 13:31N 48°25' W 123°23'0 0.0
2014-Jun-27 12:31N 48°25' W 123°23'0 0.0
2014-Jun-27 11:28N 48°25' W 123°23'0 0.0
2014-Jun-27 10:31N 48°25' W 123°23'0 0.0
2014-Jun-27 09:28N 48°25' W 123°23'0 0.0
2014-Jun-27 08:28N 48°25' W 123°23'0 0.0
2014-Jun-27 07:31N 48°25' W 123°23'0 0.0
2014-Jun-27 06:28N 48°25' W 123°23'0 0.0
2014-Jun-27 05:31N 48°25' W 123°23'0 0.0
2014-Jun-27 04:31N 48°25' W 123°23'0 0.0
2014-Jun-27 03:28N 48°25' W 123°23'0 0.0
2014-Jun-27 02:28N 48°25' W 123°23'0 0.0
2014-Jun-27 01:31N 48°25' W 123°23'0 0.0
2014-Jun-27 00:31N 48°25' W 123°23'0 0.0
2014-Jun-26 23:31N 48°25' W 123°23'0 0.0
2014-Jun-26 22:31N 48°25' W 123°23'0 0.0
2014-Jun-26 21:31N 48°25' W 123°23'0 0.0
2014-Jun-26 20:31N 48°25' W 123°23'0 0.0
2014-Jun-26 19:31N 48°25' W 123°23'0 0.0
2014-Jun-26 18:31N 48°25' W 123°23'0 0.0
2014-Jun-26 17:31N 48°25' W 123°23'0 0.0
2014-Jun-26 16:31N 48°25' W 123°23'0 0.0
2014-Jun-26 15:31N 48°25' W 123°23'0 0.0
2014-Jun-26 14:31N 48°25' W 123°23'0 0.0
2014-Jun-26 13:31N 48°25' W 123°23'0 0.0
2014-Jun-26 12:25N 48°25' W 123°23'0 0.0
2014-Jun-26 11:31N 48°25' W 123°23'0 0.0
2014-Jun-26 10:25N 48°25' W 123°23'0 0.0
2014-Jun-26 09:31N 48°25' W 123°23'0 0.0
2014-Jun-26 08:31N 48°25' W 123°23'0 0.0
2014-Jun-26 07:28N 48°25' W 123°23'0 0.0
2014-Jun-26 06:28N 48°25' W 123°23'0 0.0
2014-Jun-26 05:28N 48°25' W 123°23'0 0.0
2014-Jun-26 04:31N 48°25' W 123°23'0 0.0
2014-Jun-26 03:31N 48°25' W 123°23'0 0.0
2014-Jun-26 02:28N 48°25' W 123°23'0 0.0
2014-Jun-26 01:31N 48°25' W 123°23'0 0.0
2014-Jun-26 00:31N 48°25' W 123°23'0 0.0
2014-Jun-25 23:25N 48°25' W 123°23'0 0.0
2014-Jun-25 22:31N 48°25' W 123°23'0 0.0
2014-Jun-25 21:31N 48°25' W 123°23'0 0.0
2014-Jun-25 20:31N 48°25' W 123°23'0 0.0
2014-Jun-25 19:31N 48°25' W 123°23'0 0.0
2014-Jun-25 18:31N 48°25' W 123°23'0 0.0
2014-Jun-25 17:31N 48°25' W 123°23'0 0.0
2014-Jun-25 16:31N 48°25' W 123°23'0 0.0
2014-Jun-25 15:31N 48°25' W 123°23'0 0.0
2014-Jun-25 14:25N 48°25' W 123°23'0 0.0
2014-Jun-25 13:31N 48°25' W 123°23'0 0.0
2014-Jun-25 12:31N 48°25' W 123°23'  

Dump ship's entire track history